sensor_id;sensor_type;location;lat;lon;timestamp;temperature;humidity
23560;DHT22;11958;50.836;4.438;2024-03-06T00:00:39;7.90;87.70
23560;DHT22;11958;50.836;4.438;2024-03-06T00:03:04;8.30;87.30
23560;DHT22;11958;50.836;4.438;2024-03-06T00:05:30;8.30;86.50
23560;DHT22;11958;50.836;4.438;2024-03-06T00:07:56;8.10;86.20
23560;DHT22;11958;50.836;4.438;2024-03-06T00:10:21;7.60;88.30
23560;DHT22;11958;50.836;4.438;2024-03-06T00:12:47;7.40;89.40
23560;DHT22;11958;50.836;4.438;2024-03-06T00:15:13;7.30;90.20
23560;DHT22;11958;50.836;4.438;2024-03-06T00:17:39;7.30;90.70
23560;DHT22;11958;50.836;4.438;2024-03-06T00:20:05;7.20;91.20
23560;DHT22;11958;50.836;4.438;2024-03-06T00:22:30;7.50;90.30
23560;DHT22;11958;50.836;4.438;2024-03-06T00:24:57;7.30;89.60
23560;DHT22;11958;50.836;4.438;2024-03-06T00:27:22;7.20;90.00
23560;DHT22;11958;50.836;4.438;2024-03-06T00:29:48;7.20;90.20
23560;DHT22;11958;50.836;4.438;2024-03-06T00:32:14;7.20;90.20
23560;DHT22;11958;50.836;4.438;2024-03-06T00:34:40;7.20;90.00
23560;DHT22;11958;50.836;4.438;2024-03-06T00:37:06;7.30;89.80
23560;DHT22;11958;50.836;4.438;2024-03-06T00:39:31;7.40;89.20
23560;DHT22;11958;50.836;4.438;2024-03-06T00:41:57;7.60;89.20
23560;DHT22;11958;50.836;4.438;2024-03-06T00:44:22;7.40;88.90
23560;DHT22;11958;50.836;4.438;2024-03-06T00:46:48;7.30;89.20
23560;DHT22;11958;50.836;4.438;2024-03-06T00:49:14;6.80;90.30
23560;DHT22;11958;50.836;4.438;2024-03-06T00:51:39;6.90;91.00
23560;DHT22;11958;50.836;4.438;2024-03-06T00:54:05;6.90;90.80
23560;DHT22;11958;50.836;4.438;2024-03-06T00:56:31;6.70;90.80
23560;DHT22;11958;50.836;4.438;2024-03-06T00:58:56;6.80;90.90
23560;DHT22;11958;50.836;4.438;2024-03-06T01:01:22;6.60;91.50
23560;DHT22;11958;50.836;4.438;2024-03-06T01:03:48;6.60;91.40
23560;DHT22;11958;50.836;4.438;2024-03-06T01:06:14;6.50;91.50
23560;DHT22;11958;50.836;4.438;2024-03-06T01:08:40;6.40;91.70
23560;DHT22;11958;50.836;4.438;2024-03-06T01:11:06;6.40;91.80
23560;DHT22;11958;50.836;4.438;2024-03-06T01:13:32;6.30;91.50
23560;DHT22;11958;50.836;4.438;2024-03-06T01:15:58;6.20;91.70
23560;DHT22;11958;50.836;4.438;2024-03-06T01:18:23;6.20;92.10
23560;DHT22;11958;50.836;4.438;2024-03-06T01:20:49;6.00;92.00
23560;DHT22;11958;50.836;4.438;2024-03-06T01:23:14;6.30;91.50
23560;DHT22;11958;50.836;4.438;2024-03-06T01:25:40;6.70;90.60
23560;DHT22;11958;50.836;4.438;2024-03-06T01:28:06;6.70;90.00
23560;DHT22;11958;50.836;4.438;2024-03-06T01:30:31;6.50;89.70
23560;DHT22;11958;50.836;4.438;2024-03-06T01:32:57;6.40;90.40
23560;DHT22;11958;50.836;4.438;2024-03-06T01:35:23;6.70;90.10
23560;DHT22;11958;50.836;4.438;2024-03-06T01:37:49;6.40;90.00
23560;DHT22;11958;50.836;4.438;2024-03-06T01:40:15;6.40;90.20
23560;DHT22;11958;50.836;4.438;2024-03-06T01:42:40;6.40;90.50
23560;DHT22;11958;50.836;4.438;2024-03-06T01:45:07;6.20;90.50
23560;DHT22;11958;50.836;4.438;2024-03-06T01:47:32;6.10;91.10
23560;DHT22;11958;50.836;4.438;2024-03-06T01:49:59;6.00;91.20
23560;DHT22;11958;50.836;4.438;2024-03-06T01:52:25;6.10;91.70
23560;DHT22;11958;50.836;4.438;2024-03-06T01:54:51;5.90;91.70
23560;DHT22;11958;50.836;4.438;2024-03-06T01:57:17;5.90;92.00
23560;DHT22;11958;50.836;4.438;2024-03-06T01:59:44;5.90;92.30
23560;DHT22;11958;50.836;4.438;2024-03-06T02:02:10;6.30;91.80
23560;DHT22;11958;50.836;4.438;2024-03-06T02:04:40;6.10;90.70
23560;DHT22;11958;50.836;4.438;2024-03-06T02:07:09;5.90;91.20
23560;DHT22;11958;50.836;4.438;2024-03-06T02:09:39;5.80;91.90
23560;DHT22;11958;50.836;4.438;2024-03-06T02:12:08;5.80;92.20
23560;DHT22;11958;50.836;4.438;2024-03-06T02:14:36;5.70;92.10
23560;DHT22;11958;50.836;4.438;2024-03-06T02:17:02;5.80;92.40
23560;DHT22;11958;50.836;4.438;2024-03-06T02:19:41;5.80;92.30
23560;DHT22;11958;50.836;4.438;2024-03-06T02:22:08;5.80;92.10
23560;DHT22;11958;50.836;4.438;2024-03-06T02:24:34;5.50;92.70
23560;DHT22;11958;50.836;4.438;2024-03-06T02:27:00;5.20;93.50
23560;DHT22;11958;50.836;4.438;2024-03-06T02:29:26;5.50;93.80
23560;DHT22;11958;50.836;4.438;2024-03-06T02:31:51;5.40;93.80
23560;DHT22;11958;50.836;4.438;2024-03-06T02:34:17;5.40;93.20
23560;DHT22;11958;50.836;4.438;2024-03-06T02:36:43;5.60;92.90
23560;DHT22;11958;50.836;4.438;2024-03-06T02:39:09;5.90;91.60
23560;DHT22;11958;50.836;4.438;2024-03-06T02:41:37;6.00;90.50
23560;DHT22;11958;50.836;4.438;2024-03-06T02:44:03;6.00;90.10
23560;DHT22;11958;50.836;4.438;2024-03-06T02:46:29;5.30;91.50
23560;DHT22;11958;50.836;4.438;2024-03-06T02:48:55;5.30;91.90
23560;DHT22;11958;50.836;4.438;2024-03-06T02:51:21;5.10;93.00
23560;DHT22;11958;50.836;4.438;2024-03-06T02:53:47;5.10;93.30
23560;DHT22;11958;50.836;4.438;2024-03-06T02:56:18;5.20;93.50
23560;DHT22;11958;50.836;4.438;2024-03-06T02:58:44;5.00;93.20
23560;DHT22;11958;50.836;4.438;2024-03-06T03:01:10;5.30;93.40
23560;DHT22;11958;50.836;4.438;2024-03-06T03:03:36;5.70;92.10
23560;DHT22;11958;50.836;4.438;2024-03-06T03:06:01;5.60;91.00
23560;DHT22;11958;50.836;4.438;2024-03-06T03:08:28;5.40;91.30
23560;DHT22;11958;50.836;4.438;2024-03-06T03:10:54;5.50;91.70
23560;DHT22;11958;50.836;4.438;2024-03-06T03:13:20;5.60;91.50
23560;DHT22;11958;50.836;4.438;2024-03-06T03:15:47;5.30;91.50
23560;DHT22;11958;50.836;4.438;2024-03-06T03:18:13;5.30;91.80
23560;DHT22;11958;50.836;4.438;2024-03-06T03:20:39;5.10;92.20
23560;DHT22;11958;50.836;4.438;2024-03-06T03:23:04;5.30;92.40
23560;DHT22;11958;50.836;4.438;2024-03-06T03:25:31;5.30;91.50
23560;DHT22;11958;50.836;4.438;2024-03-06T03:27:58;5.20;91.70
23560;DHT22;11958;50.836;4.438;2024-03-06T03:30:24;5.20;91.70
23560;DHT22;11958;50.836;4.438;2024-03-06T03:32:50;5.40;91.60
23560;DHT22;11958;50.836;4.438;2024-03-06T03:35:15;5.60;90.70
23560;DHT22;11958;50.836;4.438;2024-03-06T03:37:42;5.90;89.50
23560;DHT22;11958;50.836;4.438;2024-03-06T03:40:09;5.80;88.80
23560;DHT22;11958;50.836;4.438;2024-03-06T03:42:38;5.70;88.90
23560;DHT22;11958;50.836;4.438;2024-03-06T03:45:04;5.60;89.00
23560;DHT22;11958;50.836;4.438;2024-03-06T03:47:30;5.30;89.70
23560;DHT22;11958;50.836;4.438;2024-03-06T03:49:55;5.00;90.70
23560;DHT22;11958;50.836;4.438;2024-03-06T03:52:21;4.70;91.90
23560;DHT22;11958;50.836;4.438;2024-03-06T03:54:47;4.70;92.00
23560;DHT22;11958;50.836;4.438;2024-03-06T03:57:13;4.50;92.90
23560;DHT22;11958;50.836;4.438;2024-03-06T03:59:39;4.60;92.60
23560;DHT22;11958;50.836;4.438;2024-03-06T04:02:06;4.30;92.50
23560;DHT22;11958;50.836;4.438;2024-03-06T04:04:33;4.30;93.20
23560;DHT22;11958;50.836;4.438;2024-03-06T04:06:59;4.20;93.40
23560;DHT22;11958;50.836;4.438;2024-03-06T04:09:30;4.30;93.20
23560;DHT22;11958;50.836;4.438;2024-03-06T04:11:55;4.40;93.50
23560;DHT22;11958;50.836;4.438;2024-03-06T04:14:22;4.30;93.40
23560;DHT22;11958;50.836;4.438;2024-03-06T04:16:47;4.10;93.10
23560;DHT22;11958;50.836;4.438;2024-03-06T04:19:13;4.30;92.90
23560;DHT22;11958;50.836;4.438;2024-03-06T04:21:43;4.50;93.00
23560;DHT22;11958;50.836;4.438;2024-03-06T04:24:08;4.70;92.10
23560;DHT22;11958;50.836;4.438;2024-03-06T04:26:34;4.40;91.80
23560;DHT22;11958;50.836;4.438;2024-03-06T04:29:00;4.60;92.10
23560;DHT22;11958;50.836;4.438;2024-03-06T04:31:26;4.40;92.10
23560;DHT22;11958;50.836;4.438;2024-03-06T04:33:51;4.60;92.40
23560;DHT22;11958;50.836;4.438;2024-03-06T04:36:18;4.60;92.00
23560;DHT22;11958;50.836;4.438;2024-03-06T04:38:43;4.40;92.10
23560;DHT22;11958;50.836;4.438;2024-03-06T04:41:09;4.40;92.20
23560;DHT22;11958;50.836;4.438;2024-03-06T04:43:36;4.40;92.20
23560;DHT22;11958;50.836;4.438;2024-03-06T04:46:02;4.30;93.00
23560;DHT22;11958;50.836;4.438;2024-03-06T04:48:27;4.20;92.70
23560;DHT22;11958;50.836;4.438;2024-03-06T04:50:53;4.10;93.30
23560;DHT22;11958;50.836;4.438;2024-03-06T04:53:19;4.20;93.30
23560;DHT22;11958;50.836;4.438;2024-03-06T04:55:47;4.40;93.60
23560;DHT22;11958;50.836;4.438;2024-03-06T04:58:13;4.30;93.40
23560;DHT22;11958;50.836;4.438;2024-03-06T05:00:39;4.30;93.40
23560;DHT22;11958;50.836;4.438;2024-03-06T05:03:05;4.70;92.10
23560;DHT22;11958;50.836;4.438;2024-03-06T05:05:30;4.50;90.90
23560;DHT22;11958;50.836;4.438;2024-03-06T05:07:57;4.40;91.70
23560;DHT22;11958;50.836;4.438;2024-03-06T05:10:23;4.10;92.60
23560;DHT22;11958;50.836;4.438;2024-03-06T05:12:49;4.00;93.30
23560;DHT22;11958;50.836;4.438;2024-03-06T05:15:16;4.00;93.50
23560;DHT22;11958;50.836;4.438;2024-03-06T05:17:41;3.90;93.70
23560;DHT22;11958;50.836;4.438;2024-03-06T05:20:07;4.10;93.70
23560;DHT22;11958;50.836;4.438;2024-03-06T05:22:33;4.00;93.70
23560;DHT22;11958;50.836;4.438;2024-03-06T05:24:59;4.10;93.20
23560;DHT22;11958;50.836;4.438;2024-03-06T05:27:25;4.10;92.50
23560;DHT22;11958;50.836;4.438;2024-03-06T05:29:51;4.00;92.60
23560;DHT22;11958;50.836;4.438;2024-03-06T05:32:17;4.00;92.90
23560;DHT22;11958;50.836;4.438;2024-03-06T05:34:43;4.20;93.50
23560;DHT22;11958;50.836;4.438;2024-03-06T05:37:10;4.20;93.20
23560;DHT22;11958;50.836;4.438;2024-03-06T05:39:35;4.10;92.20
23560;DHT22;11958;50.836;4.438;2024-03-06T05:42:03;3.90;92.90
23560;DHT22;11958;50.836;4.438;2024-03-06T05:44:33;3.90;92.40
23560;DHT22;11958;50.836;4.438;2024-03-06T05:46:59;4.10;92.10
23560;DHT22;11958;50.836;4.438;2024-03-06T05:49:27;4.00;91.60
23560;DHT22;11958;50.836;4.438;2024-03-06T05:51:53;3.80;92.20
23560;DHT22;11958;50.836;4.438;2024-03-06T05:54:20;4.00;92.40
23560;DHT22;11958;50.836;4.438;2024-03-06T05:56:50;4.30;91.80
23560;DHT22;11958;50.836;4.438;2024-03-06T05:59:19;4.10;91.60
23560;DHT22;11958;50.836;4.438;2024-03-06T06:01:45;4.30;91.00
23560;DHT22;11958;50.836;4.438;2024-03-06T06:04:11;3.70;91.00
23560;DHT22;11958;50.836;4.438;2024-03-06T06:06:38;3.80;91.30
23560;DHT22;11958;50.836;4.438;2024-03-06T06:09:04;3.80;92.30
23560;DHT22;11958;50.836;4.438;2024-03-06T06:11:42;4.20;91.10
23560;DHT22;11958;50.836;4.438;2024-03-06T06:14:08;3.90;91.10
23560;DHT22;11958;50.836;4.438;2024-03-06T06:16:38;4.20;91.20
23560;DHT22;11958;50.836;4.438;2024-03-06T06:19:04;4.10;91.00
23560;DHT22;11958;50.836;4.438;2024-03-06T06:21:30;3.90;90.90
23560;DHT22;11958;50.836;4.438;2024-03-06T06:23:56;3.90;91.10
23560;DHT22;11958;50.836;4.438;2024-03-06T06:26:22;4.10;91.20
23560;DHT22;11958;50.836;4.438;2024-03-06T06:28:47;4.00;91.60
23560;DHT22;11958;50.836;4.438;2024-03-06T06:31:13;3.70;92.40
23560;DHT22;11958;50.836;4.438;2024-03-06T06:33:39;3.30;92.90
23560;DHT22;11958;50.836;4.438;2024-03-06T06:36:04;3.50;93.50
23560;DHT22;11958;50.836;4.438;2024-03-06T06:38:30;3.60;93.60
23560;DHT22;11958;50.836;4.438;2024-03-06T06:40:56;3.50;93.60
23560;DHT22;11958;50.836;4.438;2024-03-06T06:43:22;3.70;93.40
23560;DHT22;11958;50.836;4.438;2024-03-06T06:45:48;3.70;93.60
23560;DHT22;11958;50.836;4.438;2024-03-06T06:48:14;3.80;93.10
23560;DHT22;11958;50.836;4.438;2024-03-06T06:50:40;4.20;92.30
23560;DHT22;11958;50.836;4.438;2024-03-06T06:53:05;4.30;91.70
23560;DHT22;11958;50.836;4.438;2024-03-06T06:55:31;4.10;91.10
23560;DHT22;11958;50.836;4.438;2024-03-06T06:57:57;4.20;90.80
23560;DHT22;11958;50.836;4.438;2024-03-06T07:00:22;3.90;92.10
23560;DHT22;11958;50.836;4.438;2024-03-06T07:02:48;3.90;92.30
23560;DHT22;11958;50.836;4.438;2024-03-06T07:05:14;4.00;92.10
23560;DHT22;11958;50.836;4.438;2024-03-06T07:07:40;4.10;92.40
23560;DHT22;11958;50.836;4.438;2024-03-06T07:10:07;4.20;91.70
23560;DHT22;11958;50.836;4.438;2024-03-06T07:12:33;4.10;91.10
23560;DHT22;11958;50.836;4.438;2024-03-06T07:14:59;4.30;91.40
23560;DHT22;11958;50.836;4.438;2024-03-06T07:17:25;4.60;90.80
23560;DHT22;11958;50.836;4.438;2024-03-06T07:19:51;4.40;90.80
23560;DHT22;11958;50.836;4.438;2024-03-06T07:22:18;4.50;90.80
23560;DHT22;11958;50.836;4.438;2024-03-06T07:24:44;4.60;90.50
23560;DHT22;11958;50.836;4.438;2024-03-06T07:27:10;4.40;90.70
23560;DHT22;11958;50.836;4.438;2024-03-06T07:29:36;4.60;91.20
23560;DHT22;11958;50.836;4.438;2024-03-06T07:32:02;4.50;91.20
23560;DHT22;11958;50.836;4.438;2024-03-06T07:34:28;4.70;90.80
23560;DHT22;11958;50.836;4.438;2024-03-06T07:36:54;5.00;90.60
23560;DHT22;11958;50.836;4.438;2024-03-06T07:39:20;5.10;90.60
23560;DHT22;11958;50.836;4.438;2024-03-06T07:41:46;4.70;90.50
23560;DHT22;11958;50.836;4.438;2024-03-06T07:44:12;5.00;90.40
23560;DHT22;11958;50.836;4.438;2024-03-06T07:46:38;5.10;90.50
23560;DHT22;11958;50.836;4.438;2024-03-06T07:49:04;5.00;90.90
23560;DHT22;11958;50.836;4.438;2024-03-06T07:51:33;5.10;91.10
23560;DHT22;11958;50.836;4.438;2024-03-06T07:53:59;5.40;91.20
23560;DHT22;11958;50.836;4.438;2024-03-06T07:56:26;5.30;91.00
23560;DHT22;11958;50.836;4.438;2024-03-06T07:58:52;5.30;91.70
23560;DHT22;11958;50.836;4.438;2024-03-06T08:01:19;5.40;92.40
23560;DHT22;11958;50.836;4.438;2024-03-06T08:03:45;5.70;92.30
23560;DHT22;11958;50.836;4.438;2024-03-06T08:06:10;5.70;92.30
23560;DHT22;11958;50.836;4.438;2024-03-06T08:08:39;5.70;92.40
23560;DHT22;11958;50.836;4.438;2024-03-06T08:11:05;5.90;92.20
23560;DHT22;11958;50.836;4.438;2024-03-06T08:13:31;5.90;92.10
23560;DHT22;11958;50.836;4.438;2024-03-06T08:15:56;6.00;92.20
23560;DHT22;11958;50.836;4.438;2024-03-06T08:18:22;6.20;92.10
23560;DHT22;11958;50.836;4.438;2024-03-06T08:20:48;6.10;91.60
23560;DHT22;11958;50.836;4.438;2024-03-06T08:23:13;6.40;91.20
23560;DHT22;11958;50.836;4.438;2024-03-06T08:25:39;6.40;91.20
23560;DHT22;11958;50.836;4.438;2024-03-06T08:28:05;6.60;91.50
23560;DHT22;11958;50.836;4.438;2024-03-06T08:30:31;6.60;91.00
23560;DHT22;11958;50.836;4.438;2024-03-06T08:32:57;6.90;91.00
23560;DHT22;11958;50.836;4.438;2024-03-06T08:35:23;7.10;90.70
23560;DHT22;11958;50.836;4.438;2024-03-06T08:37:50;7.30;90.40
23560;DHT22;11958;50.836;4.438;2024-03-06T08:40:18;7.50;89.70
23560;DHT22;11958;50.836;4.438;2024-03-06T08:42:45;7.60;88.80
23560;DHT22;11958;50.836;4.438;2024-03-06T08:45:12;7.60;88.00
23560;DHT22;11958;50.836;4.438;2024-03-06T08:47:39;7.70;87.90
23560;DHT22;11958;50.836;4.438;2024-03-06T08:50:05;7.90;87.90
23560;DHT22;11958;50.836;4.438;2024-03-06T08:52:33;7.90;87.80
23560;DHT22;11958;50.836;4.438;2024-03-06T08:55:00;8.10;87.10
23560;DHT22;11958;50.836;4.438;2024-03-06T08:57:26;8.30;86.40
23560;DHT22;11958;50.836;4.438;2024-03-06T08:59:54;8.20;86.00
23560;DHT22;11958;50.836;4.438;2024-03-06T09:02:20;8.50;85.50
23560;DHT22;11958;50.836;4.438;2024-03-06T09:04:46;8.50;84.10
23560;DHT22;11958;50.836;4.438;2024-03-06T09:07:12;8.60;84.30
23560;DHT22;11958;50.836;4.438;2024-03-06T09:09:38;8.60;82.50
23560;DHT22;11958;50.836;4.438;2024-03-06T09:12:06;8.60;83.70
23560;DHT22;11958;50.836;4.438;2024-03-06T09:14:35;8.80;82.20
23560;DHT22;11958;50.836;4.438;2024-03-06T09:19:40;9.10;81.30
23560;DHT22;11958;50.836;4.438;2024-03-06T09:22:06;9.10;81.80
23560;DHT22;11958;50.836;4.438;2024-03-06T09:24:33;9.00;81.50
23560;DHT22;11958;50.836;4.438;2024-03-06T09:27:00;9.10;81.60
23560;DHT22;11958;50.836;4.438;2024-03-06T09:29:26;9.00;81.50
23560;DHT22;11958;50.836;4.438;2024-03-06T09:31:52;9.20;79.80
23560;DHT22;11958;50.836;4.438;2024-03-06T09:34:29;9.70;78.90
23560;DHT22;11958;50.836;4.438;2024-03-06T09:36:55;9.50;78.70
23560;DHT22;11958;50.836;4.438;2024-03-06T09:39:20;9.30;79.30
23560;DHT22;11958;50.836;4.438;2024-03-06T09:41:51;9.50;78.50
23560;DHT22;11958;50.836;4.438;2024-03-06T09:44:17;9.60;79.00
23560;DHT22;11958;50.836;4.438;2024-03-06T09:46:47;9.80;79.00
23560;DHT22;11958;50.836;4.438;2024-03-06T09:49:18;9.80;79.60
23560;DHT22;11958;50.836;4.438;2024-03-06T09:51:45;9.80;79.30
23560;DHT22;11958;50.836;4.438;2024-03-06T09:54:12;9.70;78.10
23560;DHT22;11958;50.836;4.438;2024-03-06T09:56:41;10.00;77.80
23560;DHT22;11958;50.836;4.438;2024-03-06T09:59:07;10.10;78.70
23560;DHT22;11958;50.836;4.438;2024-03-06T10:01:33;10.10;77.40
23560;DHT22;11958;50.836;4.438;2024-03-06T10:04:18;10.00;77.60
23560;DHT22;11958;50.836;4.438;2024-03-06T10:06:44;10.00;77.00
23560;DHT22;11958;50.836;4.438;2024-03-06T10:09:11;10.10;76.90
23560;DHT22;11958;50.836;4.438;2024-03-06T10:11:40;10.20;79.00
23560;DHT22;11958;50.836;4.438;2024-03-06T10:14:08;10.30;78.90
23560;DHT22;11958;50.836;4.438;2024-03-06T10:16:35;10.50;76.40
23560;DHT22;11958;50.836;4.438;2024-03-06T10:19:17;10.70;74.80
23560;DHT22;11958;50.836;4.438;2024-03-06T10:21:47;10.60;75.10
23560;DHT22;11958;50.836;4.438;2024-03-06T10:24:22;10.70;74.10
23560;DHT22;11958;50.836;4.438;2024-03-06T10:26:50;10.90;72.90
23560;DHT22;11958;50.836;4.438;2024-03-06T10:29:17;11.00;73.50
23560;DHT22;11958;50.836;4.438;2024-03-06T10:31:50;11.30;72.60
23560;DHT22;11958;50.836;4.438;2024-03-06T10:34:19;11.40;73.10
23560;DHT22;11958;50.836;4.438;2024-03-06T10:36:58;11.30;73.70
23560;DHT22;11958;50.836;4.438;2024-03-06T10:39:24;10.90;71.20
23560;DHT22;11958;50.836;4.438;2024-03-06T10:41:55;10.80;71.50
23560;DHT22;11958;50.836;4.438;2024-03-06T10:44:24;10.70;71.00
23560;DHT22;11958;50.836;4.438;2024-03-06T10:47:05;10.50;69.70
23560;DHT22;11958;50.836;4.438;2024-03-06T10:49:32;10.60;69.80
23560;DHT22;11958;50.836;4.438;2024-03-06T10:52:04;10.70;70.70
23560;DHT22;11958;50.836;4.438;2024-03-06T10:54:33;10.80;72.10
23560;DHT22;11958;50.836;4.438;2024-03-06T10:57:08;10.90;72.70
23560;DHT22;11958;50.836;4.438;2024-03-06T10:59:35;10.90;71.00
23560;DHT22;11958;50.836;4.438;2024-03-06T11:02:01;11.00;71.90
23560;DHT22;11958;50.836;4.438;2024-03-06T11:04:28;11.00;71.30
23560;DHT22;11958;50.836;4.438;2024-03-06T11:06:58;11.00;70.20
23560;DHT22;11958;50.836;4.438;2024-03-06T11:09:26;11.10;69.50
23560;DHT22;11958;50.836;4.438;2024-03-06T11:12:35;11.40;70.60
23560;DHT22;11958;50.836;4.438;2024-03-06T11:15:17;11.50;70.00
23560;DHT22;11958;50.836;4.438;2024-03-06T11:17:46;11.60;69.90
23560;DHT22;11958;50.836;4.438;2024-03-06T11:20:18;11.80;70.00
23560;DHT22;11958;50.836;4.438;2024-03-06T11:23:03;11.90;69.20
23560;DHT22;11958;50.836;4.438;2024-03-06T11:28:22;11.80;67.90
23560;DHT22;11958;50.836;4.438;2024-03-06T11:33:21;12.20;67.90
23560;DHT22;11958;50.836;4.438;2024-03-06T11:36:25;12.20;63.70
23560;DHT22;11958;50.836;4.438;2024-03-06T11:39:12;12.20;65.10
23560;DHT22;11958;50.836;4.438;2024-03-06T11:41:46;12.50;64.30
23560;DHT22;11958;50.836;4.438;2024-03-06T11:44:14;12.90;62.80
23560;DHT22;11958;50.836;4.438;2024-03-06T11:46:47;12.80;60.60
23560;DHT22;11958;50.836;4.438;2024-03-06T11:49:28;12.70;62.80
23560;DHT22;11958;50.836;4.438;2024-03-06T11:51:58;12.90;60.40
23560;DHT22;11958;50.836;4.438;2024-03-06T11:54:24;12.90;60.60
23560;DHT22;11958;50.836;4.438;2024-03-06T11:57:02;13.10;59.40
23560;DHT22;11958;50.836;4.438;2024-03-06T11:59:30;13.30;58.40
23560;DHT22;11958;50.836;4.438;2024-03-06T12:02:06;13.30;57.10
23560;DHT22;11958;50.836;4.438;2024-03-06T12:04:35;13.30;58.00
23560;DHT22;11958;50.836;4.438;2024-03-06T12:07:04;13.60;57.70
23560;DHT22;11958;50.836;4.438;2024-03-06T12:09:35;14.00;55.40
23560;DHT22;11958;50.836;4.438;2024-03-06T12:12:00;13.80;56.50
23560;DHT22;11958;50.836;4.438;2024-03-06T12:14:27;13.70;55.30
23560;DHT22;11958;50.836;4.438;2024-03-06T12:16:56;13.70;56.10
23560;DHT22;11958;50.836;4.438;2024-03-06T12:19:22;13.80;57.10
23560;DHT22;11958;50.836;4.438;2024-03-06T12:21:48;14.40;55.10
23560;DHT22;11958;50.836;4.438;2024-03-06T12:24:16;15.20;53.00
23560;DHT22;11958;50.836;4.438;2024-03-06T12:26:46;15.30;51.00
23560;DHT22;11958;50.836;4.438;2024-03-06T12:29:27;14.60;53.10
23560;DHT22;11958;50.836;4.438;2024-03-06T12:31:53;15.00;51.60
23560;DHT22;11958;50.836;4.438;2024-03-06T12:34:19;14.80;51.70
23560;DHT22;11958;50.836;4.438;2024-03-06T12:36:45;14.80;51.90
23560;DHT22;11958;50.836;4.438;2024-03-06T12:39:15;14.50;52.20
23560;DHT22;11958;50.836;4.438;2024-03-06T12:41:47;15.60;50.10
23560;DHT22;11958;50.836;4.438;2024-03-06T12:44:13;17.90;46.40
23560;DHT22;11958;50.836;4.438;2024-03-06T12:46:39;19.90;41.80
23560;DHT22;11958;50.836;4.438;2024-03-06T12:49:04;21.10;36.60
23560;DHT22;11958;50.836;4.438;2024-03-06T12:51:30;20.80;37.00
23560;DHT22;11958;50.836;4.438;2024-03-06T12:53:57;19.20;38.30
23560;DHT22;11958;50.836;4.438;2024-03-06T12:56:22;17.40;42.10
23560;DHT22;11958;50.836;4.438;2024-03-06T12:58:51;16.40;44.30
23560;DHT22;11958;50.836;4.438;2024-03-06T13:01:17;15.80;46.00
23560;DHT22;11958;50.836;4.438;2024-03-06T13:03:43;15.30;49.10
23560;DHT22;11958;50.836;4.438;2024-03-06T13:06:12;15.50;47.50
23560;DHT22;11958;50.836;4.438;2024-03-06T13:08:37;15.70;46.60
23560;DHT22;11958;50.836;4.438;2024-03-06T13:11:03;15.20;48.80
23560;DHT22;11958;50.836;4.438;2024-03-06T13:13:29;14.60;50.10
23560;DHT22;11958;50.836;4.438;2024-03-06T13:15:58;14.40;51.00
23560;DHT22;11958;50.836;4.438;2024-03-06T13:18:24;14.60;50.80
23560;DHT22;11958;50.836;4.438;2024-03-06T13:20:51;14.80;50.30
23560;DHT22;11958;50.836;4.438;2024-03-06T13:23:17;14.80;50.80
23560;DHT22;11958;50.836;4.438;2024-03-06T13:25:43;14.60;49.90
23560;DHT22;11958;50.836;4.438;2024-03-06T13:28:11;14.30;51.40
23560;DHT22;11958;50.836;4.438;2024-03-06T13:30:37;14.10;51.60
23560;DHT22;11958;50.836;4.438;2024-03-06T13:33:04;13.80;52.10
23560;DHT22;11958;50.836;4.438;2024-03-06T13:35:31;13.70;52.40
23560;DHT22;11958;50.836;4.438;2024-03-06T13:37:57;13.70;52.30
23560;DHT22;11958;50.836;4.438;2024-03-06T13:40:23;13.60;52.70
23560;DHT22;11958;50.836;4.438;2024-03-06T13:42:48;13.90;52.70
23560;DHT22;11958;50.836;4.438;2024-03-06T13:45:14;13.80;53.10
23560;DHT22;11958;50.836;4.438;2024-03-06T13:47:41;14.10;51.80
23560;DHT22;11958;50.836;4.438;2024-03-06T13:50:15;14.00;51.30
23560;DHT22;11958;50.836;4.438;2024-03-06T13:52:41;14.20;51.00
23560;DHT22;11958;50.836;4.438;2024-03-06T13:55:08;14.10;51.70
23560;DHT22;11958;50.836;4.438;2024-03-06T13:57:35;14.10;52.10
23560;DHT22;11958;50.836;4.438;2024-03-06T14:00:06;14.00;51.10
23560;DHT22;11958;50.836;4.438;2024-03-06T14:02:32;13.80;52.40
23560;DHT22;11958;50.836;4.438;2024-03-06T14:04:58;13.60;52.50
23560;DHT22;11958;50.836;4.438;2024-03-06T14:07:25;13.90;52.20
23560;DHT22;11958;50.836;4.438;2024-03-06T14:09:51;14.20;51.80
23560;DHT22;11958;50.836;4.438;2024-03-06T14:12:17;14.40;49.40
23560;DHT22;11958;50.836;4.438;2024-03-06T14:14:43;14.30;49.70
23560;DHT22;11958;50.836;4.438;2024-03-06T14:17:11;14.20;49.70
23560;DHT22;11958;50.836;4.438;2024-03-06T14:19:36;14.00;50.60
23560;DHT22;11958;50.836;4.438;2024-03-06T14:22:02;13.80;51.20
23560;DHT22;11958;50.836;4.438;2024-03-06T14:24:28;13.80;51.60
23560;DHT22;11958;50.836;4.438;2024-03-06T14:26:53;14.40;48.90
23560;DHT22;11958;50.836;4.438;2024-03-06T14:29:19;13.90;49.80
23560;DHT22;11958;50.836;4.438;2024-03-06T14:31:45;14.00;51.10
23560;DHT22;11958;50.836;4.438;2024-03-06T14:34:10;14.30;49.60
23560;DHT22;11958;50.836;4.438;2024-03-06T14:36:36;14.30;49.20
23560;DHT22;11958;50.836;4.438;2024-03-06T14:39:02;14.20;49.60
23560;DHT22;11958;50.836;4.438;2024-03-06T14:41:31;14.30;48.80
23560;DHT22;11958;50.836;4.438;2024-03-06T14:43:57;14.70;47.50
23560;DHT22;11958;50.836;4.438;2024-03-06T14:46:23;15.30;47.20
23560;DHT22;11958;50.836;4.438;2024-03-06T14:48:48;16.20;44.20
23560;DHT22;11958;50.836;4.438;2024-03-06T14:51:14;17.30;41.40
23560;DHT22;11958;50.836;4.438;2024-03-06T14:53:43;16.90;41.00
23560;DHT22;11958;50.836;4.438;2024-03-06T14:56:12;16.40;41.90
23560;DHT22;11958;50.836;4.438;2024-03-06T14:58:38;15.80;43.80
23560;DHT22;11958;50.836;4.438;2024-03-06T15:01:04;15.50;44.80
23560;DHT22;11958;50.836;4.438;2024-03-06T15:03:32;15.40;47.00
23560;DHT22;11958;50.836;4.438;2024-03-06T15:06:02;14.60;47.80
23560;DHT22;11958;50.836;4.438;2024-03-06T15:08:35;14.50;47.80
23560;DHT22;11958;50.836;4.438;2024-03-06T15:11:11;14.60;47.20
23560;DHT22;11958;50.836;4.438;2024-03-06T15:13:42;14.50;48.30
23560;DHT22;11958;50.836;4.438;2024-03-06T15:16:07;14.00;48.80
23560;DHT22;11958;50.836;4.438;2024-03-06T15:18:49;13.90;48.40
23560;DHT22;11958;50.836;4.438;2024-03-06T15:21:23;14.10;48.40
23560;DHT22;11958;50.836;4.438;2024-03-06T15:23:59;14.20;48.80
23560;DHT22;11958;50.836;4.438;2024-03-06T15:26:24;15.00;47.20
23560;DHT22;11958;50.836;4.438;2024-03-06T15:28:50;15.90;43.20
23560;DHT22;11958;50.836;4.438;2024-03-06T15:31:23;15.40;44.60
23560;DHT22;11958;50.836;4.438;2024-03-06T15:33:50;15.00;46.20
23560;DHT22;11958;50.836;4.438;2024-03-06T15:36:24;15.00;45.90
23560;DHT22;11958;50.836;4.438;2024-03-06T15:38:50;15.50;43.20
23560;DHT22;11958;50.836;4.438;2024-03-06T15:41:18;15.90;42.80
23560;DHT22;11958;50.836;4.438;2024-03-06T15:43:47;16.10;42.10
23560;DHT22;11958;50.836;4.438;2024-03-06T15:46:15;15.40;43.60
23560;DHT22;11958;50.836;4.438;2024-03-06T15:48:41;14.90;45.70